Time;durP1;ratioP1;P1;durP2;ratioP2;P2;SDS_P1;SDS_P2;PMS_P1;PMS_P2;Temp;Humidity;BMP_temperature;BMP_pressure;BME280_temperature;BME280_humidity;BME280_pressure;Samples;Min_cycle;Max_cycle;Signal;HPM_P1;HPM_P2
2023/05/05 00:01:38;;;;;;;9.23;7.13;;;14.40;99.90;;;;;;4964553;28;20081;-74
2023/05/05 00:04:09;;;;;;;;;;;14.20;99.90;;;;;;4968691;28;20044;-73
2023/05/05 00:06:36;;;;;;;8.57;6.75;;;14.20;99.90;;;;;;5007697;28;19960;-74
2023/05/05 00:09:12;;;;;;;9.00;7.05;;;14.20;99.90;;;;;;5001846;23;20129;-72
2023/05/05 00:11:42;;;;;;;9.20;6.18;;;13.80;99.90;;;;;;4985147;28;20547;-75
2023/05/05 00:14:10;;;;;;;8.90;6.70;;;13.60;99.90;;;;;;4998841;28;20046;-71
2023/05/05 00:16:38;;;;;;;9.15;6.85;;;13.50;99.90;;;;;;4995617;28;20062;-73
2023/05/05 00:19:07;;;;;;;8.63;6.90;;;13.50;99.90;;;;;;4995482;28;20087;-74
2023/05/05 00:21:36;;;;;;;10.02;7.68;;;13.70;99.90;;;;;;5018952;28;20042;-73
2023/05/05 00:24:09;;;;;;;13.10;7.55;;;13.90;99.90;;;;;;5006277;28;20049;-71
2023/05/05 00:26:39;;;;;;;8.88;7.13;;;14.00;99.90;;;;;;5023510;28;20139;-75
2023/05/05 00:29:09;;;;;;;10.48;7.13;;;14.00;99.90;;;;;;5003139;28;20061;-74
2023/05/05 00:31:36;;;;;;;11.13;7.43;;;13.90;99.90;;;;;;5001364;28;20381;-74
2023/05/05 00:34:04;;;;;;;9.82;7.45;;;13.90;99.90;;;;;;5008153;28;20077;-77
2023/05/05 00:36:31;;;;;;;8.90;6.78;;;13.90;99.90;;;;;;5008777;28;20053;-72
2023/05/05 00:39:05;;;;;;;9.80;7.45;;;14.00;99.90;;;;;;5003984;28;20053;-73
2023/05/05 00:41:32;;;;;;;9.15;7.35;;;13.90;99.90;;;;;;5008166;28;20267;-73
2023/05/05 00:44:07;;;;;;;9.68;7.00;;;13.90;99.90;;;;;;4993973;28;20061;-71
2023/05/05 00:46:35;;;;;;;9.85;7.40;;;13.90;99.90;;;;;;5022823;28;20082;-78
2023/05/05 00:49:05;;;;;;;10.07;7.40;;;13.90;99.90;;;;;;5005098;28;20471;-73
2023/05/05 00:51:35;;;;;;;11.90;7.88;;;13.90;99.90;;;;;;5017794;28;20144;-76
2023/05/05 00:54:06;;;;;;;11.60;7.30;;;13.90;99.90;;;;;;5008269;28;20054;-73
2023/05/05 00:56:33;;;;;;;10.18;7.80;;;13.80;99.90;;;;;;5004744;28;20376;-72
2023/05/05 00:59:02;;;;;;;12.07;7.82;;;13.70;99.90;;;;;;5032458;28;20044;-76
2023/05/05 01:01:30;;;;;;;11.52;8.30;;;13.70;99.90;;;;;;5035210;28;20077;-73
2023/05/05 01:04:02;;;;;;;10.98;8.43;;;13.60;99.90;;;;;;5002380;28;20058;-76
2023/05/05 01:07:02;;;;;;;14.38;8.68;;;13.50;99.90;;;;;;5014634;28;20077;-74
2023/05/05 01:10:15;;;;;;;14.10;9.05;;;13.30;99.90;;;;;;4972907;28;20042;-74
2023/05/05 01:13:07;;;;;;;12.73;9.18;;;13.20;99.90;;;;;;4967338;28;20623;-70
2023/05/05 01:15:45;;;;;;;12.77;9.13;;;13.10;99.90;;;;;;4977408;28;20413;-72
2023/05/05 01:18:40;;;;;;;13.77;8.60;;;13.30;99.90;;;;;;4976358;28;20120;-74
2023/05/05 01:21:20;;;;;;;12.23;8.80;;;13.40;99.90;;;;;;4995683;28;20046;-74
2023/05/05 01:24:13;;;;;;;11.83;8.93;;;13.60;99.90;;;;;;4987145;28;20470;-74
2023/05/05 01:27:26;;;;;;;12.95;8.68;;;13.50;99.90;;;;;;4998467;28;20279;-72
2023/05/05 01:30:35;;;;;;;12.00;8.80;;;13.50;99.90;;;;;;5001588;28;20078;-75
2023/05/05 01:33:10;;;;;;;11.45;8.45;;;13.50;99.90;;;;;;4966265;28;20153;-75
2023/05/05 01:35:49;;;;;;;12.85;8.65;;;13.50;99.90;;;;;;4992288;28;20116;-71
2023/05/05 01:38:34;;;;;;;10.95;8.25;;;13.40;99.90;;;;;;4968807;28;20412;-73
2023/05/05 01:41:20;;;;;;;12.15;8.55;;;13.30;99.90;;;;;;4975797;28;20061;-74
2023/05/05 01:43:49;;;;;;;11.95;9.02;;;13.20;99.90;;;;;;4996007;28;20099;-74
2023/05/05 01:46:18;;;;;;;10.77;8.48;;;13.30;99.90;;;;;;4986524;28;20053;-71
2023/05/05 01:48:47;;;;;;;10.63;8.60;;;13.30;99.90;;;;;;4985663;28;20053;-74
2023/05/05 01:51:18;;;;;;;11.60;8.50;;;13.30;99.90;;;;;;4982765;28;20050;-72
2023/05/05 01:53:48;;;;;;;12.15;8.85;;;13.30;99.90;;;;;;4981104;28;20056;-72
2023/05/05 01:56:16;;;;;;;10.70;8.32;;;13.10;99.90;;;;;;4982767;28;20089;-77
2023/05/05 01:58:45;;;;;;;11.57;9.43;;;13.10;99.90;;;;;;5002644;28;20053;-78
2023/05/05 02:01:13;;;;;;;11.90;8.68;;;13.10;99.90;;;;;;4966621;28;20050;-74
2023/05/05 02:03:41;;;;;;;12.35;8.55;;;13.30;99.90;;;;;;4995005;28;20054;-74
2023/05/05 02:06:13;;;;;;;13.63;8.85;;;13.20;99.90;;;;;;4979440;28;20055;-74
2023/05/05 02:08:42;;;;;;;10.50;8.48;;;13.20;99.90;;;;;;4998665;28;20076;-73
2023/05/05 02:11:11;;;;;;;11.75;9.18;;;13.10;99.90;;;;;;5021002;28;20087;-75
2023/05/05 02:13:41;;;;;;;10.82;7.88;;;13.00;99.90;;;;;;5020376;28;20050;-74
2023/05/05 02:16:10;;;;;;;11.73;8.68;;;13.00;99.90;;;;;;5036527;28;20045;-76
2023/05/05 02:18:38;;;;;;;11.10;8.90;;;13.00;99.90;;;;;;5039301;28;20120;-76
2023/05/05 02:21:06;;;;;;;11.07;9.02;;;12.80;99.90;;;;;;5024810;28;20488;-74
2023/05/05 02:23:51;;;;;;;13.70;8.52;;;12.90;99.90;;;;;;5016793;28;20045;-74
2023/05/05 02:26:22;;;;;;;10.73;8.82;;;12.90;99.90;;;;;;5036855;28;20057;-77
2023/05/05 02:29:13;;;;;;;10.38;8.68;;;13.00;99.90;;;;;;5028221;28;20041;-73
2023/05/05 02:31:47;;;;;;;10.57;8.27;;;12.80;99.90;;;;;;5001778;28;20391;-77
2023/05/05 02:34:23;;;;;;;11.52;8.43;;;12.80;99.90;;;;;;5019425;28;20454;-73
2023/05/05 02:36:56;;;;;;;11.77;9.30;;;12.70;99.90;;;;;;5024019;28;20076;-73
2023/05/05 02:39:43;;;;;;;13.18;9.82;;;12.60;99.90;;;;;;5034200;28;20068;-76
2023/05/05 02:42:21;;;;;;;13.20;9.68;;;12.50;99.90;;;;;;5026244;28;20053;-73
2023/05/05 02:44:50;;;;;;;12.80;9.32;;;12.50;99.90;;;;;;5016665;28;20136;-75
2023/05/05 02:47:19;;;;;;;13.13;10.10;;;12.50;99.90;;;;;;5019507;28;20398;-74
2023/05/05 02:49:47;;;;;;;13.68;9.65;;;12.30;99.90;;;;;;5026597;28;20061;-75
2023/05/05 02:52:16;;;;;;;13.57;9.45;;;12.40;99.90;;;;;;5028420;28;20046;-72
2023/05/05 02:54:59;;;;;;;12.73;9.30;;;12.40;99.90;;;;;;5016014;28;20155;-71
2023/05/05 02:57:48;;;;;;;12.35;9.70;;;12.40;99.90;;;;;;5023895;28;20128;-71
2023/05/05 03:00:31;;;;;;;15.13;9.68;;;12.40;99.90;;;;;;5012394;28;20117;-74
2023/05/05 03:03:48;;;;;;;12.35;9.50;;;12.40;99.90;;;;;;5034381;28;20041;-72
2023/05/05 03:06:27;;;;;;;13.75;10.30;;;12.40;99.90;;;;;;5008356;28;20057;-71
2023/05/05 03:09:13;;;;;;;12.45;9.90;;;12.40;99.90;;;;;;5036591;28;20115;-75
2023/05/05 03:11:50;;;;;;;13.18;9.88;;;12.40;99.90;;;;;;5039389;28;20076;-73
2023/05/05 03:14:35;;;;;;;16.52;10.30;;;12.40;99.90;;;;;;5026114;28;20133;-76
2023/05/05 03:17:04;;;;;;;12.15;9.25;;;12.30;99.90;;;;;;5018235;28;20081;-74
2023/05/05 03:19:32;;;;;;;14.00;9.25;;;12.30;99.90;;;;;;5015193;28;20056;-73
2023/05/05 03:22:01;;;;;;;13.18;10.23;;;12.30;99.90;;;;;;5014576;28;20622;-74
2023/05/05 03:24:29;;;;;;;13.45;10.27;;;12.40;99.90;;;;;;5026934;28;20111;-74
2023/05/05 03:26:56;;;;;;;14.10;10.27;;;12.30;99.90;;;;;;5014417;28;20427;-73
2023/05/05 03:29:24;;;;;;;14.52;10.23;;;12.20;99.90;;;;;;5008165;28;20384;-73
2023/05/05 03:31:51;;;;;;;13.48;10.13;;;12.20;99.90;;;;;;5024317;28;20195;-73
2023/05/05 03:34:19;;;;;;;13.32;10.30;;;12.20;99.90;;;;;;5014378;28;20111;-77
2023/05/05 03:36:46;;;;;;;13.48;10.50;;;12.10;99.90;;;;;;5022870;28;20471;-77
2023/05/05 03:39:14;;;;;;;15.93;10.65;;;12.20;99.90;;;;;;5034755;28;20441;-77
2023/05/05 03:41:41;;;;;;;17.33;10.70;;;12.00;99.90;;;;;;5027033;28;20053;-75
2023/05/05 03:44:09;;;;;;;12.98;9.77;;;12.10;99.90;;;;;;5031084;28;20080;-76
2023/05/05 03:46:37;;;;;;;13.20;9.68;;;12.00;99.90;;;;;;5024737;28;20069;-73
2023/05/05 03:49:12;;;;;;;13.52;10.02;;;12.20;99.90;;;;;;5028009;28;20584;-72
2023/05/05 03:51:46;;;;;;;13.18;10.18;;;12.20;99.90;;;;;;4997155;28;20401;-71
2023/05/05 03:54:16;;;;;;;14.73;10.90;;;12.10;99.90;;;;;;5026719;28;20384;-71
2023/05/05 03:56:52;;;;;;;15.55;10.43;;;12.00;99.90;;;;;;5017872;28;20042;-73
2023/05/05 03:59:20;;;;;;;12.93;9.68;;;12.10;99.90;;;;;;5030933;28;20046;-71
2023/05/05 04:01:53;;;;;;;12.10;9.20;;;12.10;99.90;;;;;;5008261;28;20053;-72
2023/05/05 04:04:22;;;;;;;13.45;9.88;;;12.00;99.90;;;;;;5032358;28;20042;-76
2023/05/05 04:06:58;;;;;;;15.43;10.68;;;11.90;99.90;;;;;;5030086;28;20049;-71
2023/05/05 04:09:28;;;;;;;14.63;10.30;;;12.00;99.90;;;;;;5039166;28;20077;-74
2023/05/05 04:11:55;;;;;;;15.65;10.73;;;12.10;99.90;;;;;;5032178;28;20136;-75
2023/05/05 04:14:23;;;;;;;15.48;10.77;;;12.30;99.90;;;;;;5035890;28;20037;-74
2023/05/05 04:16:50;;;;;;;16.25;10.60;;;12.30;99.90;;;;;;5031375;28;20052;-75
2023/05/05 04:19:17;;;;;;;19.63;11.20;;;12.30;99.90;;;;;;5020267;28;20060;-75
2023/05/05 04:21:45;;;;;;;15.60;11.70;;;12.30;99.90;;;;;;5016178;28;20049;-71
2023/05/05 04:24:14;;;;;;;16.92;10.85;;;12.50;99.90;;;;;;5027807;28;20054;-77
2023/05/05 04:26:41;;;;;;;19.23;12.18;;;12.40;99.90;;;;;;5030187;28;20054;-73
2023/05/05 04:29:12;;;;;;;15.57;11.00;;;12.30;99.90;;;;;;5010024;28;20107;-72
2023/05/05 04:31:41;;;;;;;74.40;43.15;;;12.20;99.90;;;;;;4997428;28;20185;-72
2023/05/05 04:34:08;;;;;;;64.55;43.53;;;12.50;99.90;;;;;;5014777;28;20046;-72
2023/05/05 04:36:35;;;;;;;59.42;39.03;;;12.70;99.90;;;;;;5024201;28;20053;-70
2023/05/05 04:39:07;;;;;;;22.30;15.18;;;12.90;99.90;;;;;;5033618;28;20069;-72
2023/05/05 04:41:34;;;;;;;19.35;13.02;;;12.70;99.90;;;;;;5017882;28;20125;-71
2023/05/05 04:44:06;;;;;;;28.60;20.38;;;12.50;99.90;;;;;;5002483;28;20126;-73
2023/05/05 04:46:34;;;;;;;72.78;43.95;;;12.70;99.90;;;;;;5009667;28;20087;-71
2023/05/05 04:49:03;;;;;;;96.47;60.63;;;12.70;99.90;;;;;;5033828;28;20068;-73
2023/05/05 04:51:31;;;;;;;74.82;49.83;;;13.00;99.90;;;;;;5029176;28;20049;-75
2023/05/05 04:54:02;;;;;;;25.85;17.00;;;13.10;99.90;;;;;;5024401;28;20137;-71
2023/05/05 04:56:34;;;;;;;16.80;11.55;;;13.10;99.90;;;;;;5005956;28;20050;-74
2023/05/05 04:59:04;;;;;;;79.40;48.20;;;13.00;99.90;;;;;;5023242;28;20058;-72
2023/05/05 05:01:32;;;;;;;171.77;99.18;;;13.10;99.90;;;;;;5021129;28;20477;-74
2023/05/05 05:04:03;;;;;;;44.80;30.45;;;13.30;99.90;;;;;;5016885;28;20394;-70
2023/05/05 05:06:31;;;;;;;25.17;16.80;;;13.20;99.90;;;;;;5017356;28;20072;-74
2023/05/05 05:08:59;;;;;;;15.43;11.30;;;13.20;99.90;;;;;;5013420;28;20085;-69
2023/05/05 05:11:26;;;;;;;14.85;9.35;;;13.30;99.90;;;;;;5003110;28;20041;-72
2023/05/05 05:13:54;;;;;;;15.57;10.35;;;13.00;99.90;;;;;;5015825;28;20092;-73
2023/05/05 05:16:27;;;;;;;13.63;9.35;;;12.90;99.90;;;;;;5023298;28;20046;-75
2023/05/05 05:18:58;;;;;;;13.52;8.95;;;12.80;99.90;;;;;;5002897;28;20104;-72
2023/05/05 05:21:27;;;;;;;15.38;10.32;;;12.60;99.90;;;;;;5014578;28;20152;-72
2023/05/05 05:23:55;;;;;;;10.88;8.68;;;12.80;99.90;;;;;;5016875;28;20541;-75
2023/05/05 05:26:22;;;;;;;11.05;8.80;;;12.90;99.90;;;;;;5025268;28;20549;-71
2023/05/05 05:28:50;;;;;;;10.35;8.02;;;12.90;99.90;;;;;;5004426;28;20046;-70
2023/05/05 05:31:18;;;;;;;9.02;7.38;;;13.10;99.90;;;;;;5013905;28;20128;-76
2023/05/05 05:33:45;;;;;;;9.98;7.57;;;13.20;99.90;;;;;;5024624;28;20049;-74
2023/05/05 05:36:13;;;;;;;9.20;7.20;;;13.50;99.90;;;;;;5018627;28;20058;-71
2023/05/05 05:38:42;;;;;;;11.77;6.45;;;13.60;99.90;;;;;;5012917;28;20148;-71
2023/05/05 05:41:12;;;;;;;9.20;6.97;;;13.40;99.90;;;;;;5025990;28;20133;-70
2023/05/05 05:43:40;;;;;;;10.10;6.53;;;13.40;99.90;;;;;;5037004;28;20045;-73
2023/05/05 05:46:08;;;;;;;14.50;8.23;;;13.50;99.90;;;;;;5015900;28;20057;-73
2023/05/05 05:48:35;;;;;;;10.60;7.47;;;13.50;99.90;;;;;;5020819;28;20073;-75
2023/05/05 05:51:05;;;;;;;10.27;6.50;;;13.60;99.90;;;;;;5020283;28;20054;-72
2023/05/05 05:53:33;;;;;;;10.77;7.03;;;13.70;99.90;;;;;;5012621;28;20148;-70
2023/05/05 05:56:01;;;;;;;9.77;6.57;;;13.90;99.90;;;;;;5012999;28;20045;-72
2023/05/05 05:58:28;;;;;;;9.43;5.70;;;13.90;99.90;;;;;;5028079;28;20058;-70
2023/05/05 06:00:57;;;;;;;8.45;6.13;;;14.00;99.90;;;;;;5015735;28;20041;-70
2023/05/05 06:03:27;;;;;;;8.25;5.70;;;14.10;99.90;;;;;;5032185;28;20045;-69
2023/05/05 06:05:58;;;;;;;8.20;5.60;;;14.30;99.90;;;;;;5017229;28;20049;-68
2023/05/05 06:08:25;;;;;;;8.32;5.90;;;14.50;99.90;;;;;;4992493;28;20129;-69
2023/05/05 06:10:53;;;;;;;10.23;7.80;;;14.20;99.90;;;;;;4973295;28;20053;-71
2023/05/05 06:13:27;;;;;;;7.28;5.45;;;14.30;99.90;;;;;;4973946;28;20056;-70
2023/05/05 06:15:56;;;;;;;7.63;5.30;;;14.30;99.90;;;;;;4992736;28;20412;-72
2023/05/05 06:18:24;;;;;;;9.50;5.55;;;14.40;99.90;;;;;;4993388;28;20054;-70
2023/05/05 06:20:51;;;;;;;7.72;5.65;;;14.60;99.90;;;;;;4990155;28;20514;-72
2023/05/05 06:23:18;;;;;;;8.07;5.65;;;14.70;99.90;;;;;;4997227;28;20046;-75
2023/05/05 06:25:46;;;;;;;10.20;6.65;;;14.60;99.90;;;;;;4994231;28;20057;-73
2023/05/05 06:28:13;;;;;;;7.82;6.05;;;14.80;99.90;;;;;;4993788;28;20043;-70
2023/05/05 06:30:46;;;;;;;8.93;4.93;;;14.70;99.90;;;;;;4980465;28;20470;-72
2023/05/05 06:33:13;;;;;;;11.27;5.95;;;14.60;99.90;;;;;;5001526;28;20554;-70
2023/05/05 06:35:40;;;;;;;6.80;5.55;;;14.70;99.90;;;;;;4978558;28;20136;-71
2023/05/05 06:38:09;;;;;;;6.78;5.60;;;14.70;99.90;;;;;;4980251;28;20054;-71
2023/05/05 06:40:37;;;;;;;14.10;6.22;;;14.80;99.90;;;;;;4994052;28;20431;-73
2023/05/05 06:43:07;;;;;;;11.85;5.85;;;14.70;99.90;;;;;;4979766;28;20050;-70
2023/05/05 06:45:37;;;;;;;9.35;5.75;;;14.90;99.90;;;;;;4978254;28;20061;-72
2023/05/05 06:48:06;;;;;;;8.98;5.65;;;15.10;99.90;;;;;;4989816;28;20069;-71
2023/05/05 06:50:36;;;;;;;6.55;5.07;;;15.10;99.90;;;;;;4996557;28;20108;-70
2023/05/05 06:53:03;;;;;;;6.95;5.47;;;15.00;99.90;;;;;;4966821;28;20054;-75
2023/05/05 06:55:31;;;;;;;6.28;4.97;;;15.00;99.90;;;;;;4997781;28;20516;-70
2023/05/05 06:57:58;;;;;;;6.57;4.88;;;15.00;99.90;;;;;;5009555;28;20058;-72
2023/05/05 07:00:25;;;;;;;8.18;4.93;;;15.10;99.90;;;;;;5009019;28;20105;-75
2023/05/05 07:02:56;;;;;;;7.47;5.35;;;15.30;99.90;;;;;;5016001;28;20042;-71
2023/05/05 07:05:25;;;;;;;7.85;5.10;;;15.30;99.90;;;;;;4977837;28;20054;-69
2023/05/05 07:07:54;;;;;;;8.95;5.47;;;15.30;99.90;;;;;;4996196;28;20056;-70
2023/05/05 07:10:23;;;;;;;8.68;5.13;;;15.30;99.90;;;;;;4981512;28;20472;-76
2023/05/05 07:12:51;;;;;;;7.78;5.05;;;15.30;99.90;;;;;;5025698;28;20049;-71
2023/05/05 07:15:18;;;;;;;9.05;4.80;;;15.60;99.90;;;;;;5018451;28;20853;-71
2023/05/05 07:17:55;;;;;;;8.50;4.95;;;15.80;99.90;;;;;;4996019;28;20479;-72
2023/05/05 07:20:24;;;;;;;7.03;4.82;;;15.80;99.90;;;;;;5021171;28;20037;-76
2023/05/05 07:22:54;;;;;;;7.00;4.95;;;15.90;99.90;;;;;;5020419;28;20055;-73
2023/05/05 07:25:22;;;;;;;9.93;4.80;;;15.80;99.90;;;;;;5014422;28;20128;-77
2023/05/05 07:27:52;;;;;;;7.68;5.53;;;15.90;99.90;;;;;;5005571;28;20149;-73
2023/05/05 07:30:25;;;;;;;6.38;4.45;;;16.00;99.90;;;;;;5000199;28;20068;-74
2023/05/05 07:32:57;;;;;;;8.75;4.50;;;16.10;99.90;;;;;;4999454;28;20445;-70
2023/05/05 07:35:25;;;;;;;6.57;4.22;;;16.00;99.90;;;;;;5001596;28;20057;-72
2023/05/05 07:37:55;;;;;;;8.63;4.65;;;16.00;99.90;;;;;;5036461;28;20137;-72
2023/05/05 07:40:43;;;;;;;6.73;4.30;;;16.00;99.90;;;;;;5008707;28;20547;-71
2023/05/05 07:43:15;;;;;;;7.40;4.55;;;16.20;99.90;;;;;;5002381;28;20052;-72
2023/05/05 07:45:43;;;;;;;5.35;3.92;;;16.20;99.90;;;;;;5032783;28;20056;-72
2023/05/05 07:48:10;;;;;;;8.93;4.57;;;16.40;99.90;;;;;;4999979;28;20054;-77
2023/05/05 07:50:38;;;;;;;5.70;3.88;;;16.30;99.90;;;;;;5029845;28;20077;-73
2023/05/05 07:53:13;;;;;;;8.43;4.50;;;16.20;99.90;;;;;;5006512;28;20065;-72
2023/05/05 07:55:41;;;;;;;7.07;4.13;;;16.30;99.90;;;;;;4994815;28;20506;-71
2023/05/05 07:58:12;;;;;;;5.68;4.00;;;16.40;99.90;;;;;;5008862;28;20046;-71
2023/05/05 08:00:39;;;;;;;6.38;4.35;;;16.40;99.90;;;;;;4991755;28;20050;-70
2023/05/05 08:03:07;;;;;;;5.95;4.07;;;16.60;99.90;;;;;;4996099;28;20067;-72
2023/05/05 08:05:38;;;;;;;5.32;4.07;;;16.80;99.90;;;;;;5017876;28;20396;-70
2023/05/05 08:08:11;;;;;;;5.75;4.05;;;16.80;99.70;;;;;;4996610;28;20491;-71
2023/05/05 08:10:39;;;;;;;6.28;4.13;;;16.60;99.40;;;;;;5013246;28;20137;-70
2023/05/05 08:13:15;;;;;;;6.30;3.95;;;16.60;99.30;;;;;;5030593;28;20057;-71
2023/05/05 08:15:43;;;;;;;6.47;3.80;;;16.70;99.60;;;;;;5002700;28;20089;-72
2023/05/05 08:18:13;;;;;;;5.90;4.10;;;16.90;99.00;;;;;;5022646;28;20080;-74
2023/05/05 08:20:43;;;;;;;6.90;4.00;;;17.00;98.90;;;;;;5030602;28;20042;-70
2023/05/05 08:23:11;;;;;;;11.45;4.03;;;17.10;98.70;;;;;;5011708;28;20050;-72
2023/05/05 08:25:43;;;;;;;5.20;3.50;;;17.10;98.40;;;;;;5033025;28;20076;-70
2023/05/05 08:28:22;;;;;;;5.80;3.63;;;17.10;97.40;;;;;;5023780;28;20049;-71
2023/05/05 08:30:52;;;;;;;5.30;3.42;;;17.20;98.70;;;;;;5035214;28;20045;-70
2023/05/05 08:33:25;;;;;;;7.13;3.63;;;17.50;96.90;;;;;;5024604;28;20053;-69
2023/05/05 08:35:53;;;;;;;5.35;3.40;;;17.80;96.90;;;;;;5020832;28;20061;-71
2023/05/05 08:38:23;;;;;;;5.88;4.20;;;17.90;95.20;;;;;;4997640;28;20049;-71
2023/05/05 08:40:52;;;;;;;6.38;3.40;;;17.90;95.70;;;;;;5012038;28;20049;-75
2023/05/05 08:43:21;;;;;;;5.28;3.78;;;18.00;95.30;;;;;;5026538;28;20052;-72
2023/05/05 08:45:52;;;;;;;5.65;3.40;;;18.30;95.30;;;;;;5001990;28;20049;-72
2023/05/05 08:48:24;;;;;;;5.88;4.13;;;18.60;95.60;;;;;;5013801;28;20487;-75
2023/05/05 08:51:04;;;;;;;5.10;3.40;;;18.80;95.50;;;;;;5015739;28;20050;-75
2023/05/05 08:53:52;;;;;;;5.70;3.60;;;18.80;93.60;;;;;;5013089;28;20112;-71
2023/05/05 08:56:20;;;;;;;6.68;3.70;;;18.30;93.40;;;;;;4981168;23;20096;-73
2023/05/05 08:58:52;;;;;;;6.90;3.42;;;18.60;93.70;;;;;;4976626;28;20050;-71
2023/05/05 09:01:22;;;;;;;5.63;3.35;;;18.90;92.90;;;;;;4984038;28;20052;-73
2023/05/05 09:03:50;;;;;;;6.20;3.40;;;18.90;92.70;;;;;;5006426;28;20054;-71
2023/05/05 09:06:24;;;;;;;5.55;3.50;;;18.90;92.20;;;;;;4974121;28;20056;-71
2023/05/05 09:08:54;;;;;;;6.28;3.42;;;19.20;92.80;;;;;;4992552;28;20047;-72
2023/05/05 09:11:27;;;;;;;5.90;3.63;;;19.50;92.50;;;;;;4964398;28;20109;-72
2023/05/05 09:14:00;;;;;;;6.28;3.50;;;19.50;91.80;;;;;;4992711;28;20054;-72
2023/05/05 09:16:34;;;;;;;;;;;19.30;91.20;;;;;;4983390;28;20464;-73
2023/05/05 09:19:03;;;;;;;6.97;3.33;;;19.40;92.50;;;;;;4990601;28;19922;-70
2023/05/05 09:21:31;;;;;;;6.07;3.70;;;19.50;92.70;;;;;;4950445;28;20050;-74
2023/05/05 09:24:14;;;;;;;8.05;3.50;;;19.50;92.10;;;;;;4993616;28;20047;-72
2023/05/05 09:26:50;;;;;;;5.65;3.50;;;19.50;91.00;;;;;;4977261;28;20141;-72
2023/05/05 09:29:23;;;;;;;6.35;3.15;;;19.80;90.70;;;;;;4961274;28;20047;-70
2023/05/05 09:32:09;;;;;;;4.80;2.70;;;20.30;90.50;;;;;;4967548;28;20106;-74
2023/05/05 09:34:37;;;;;;;6.43;3.38;;;20.50;88.20;;;;;;4961132;28;20082;-70
2023/05/05 09:37:05;;;;;;;5.70;3.67;;;20.60;86.80;;;;;;4948649;28;20054;-70
2023/05/05 09:39:34;;;;;;;4.75;2.90;;;20.80;85.70;;;;;;4960383;28;20065;-73
2023/05/05 09:42:02;;;;;;;5.68;3.00;;;20.90;83.20;;;;;;4971094;28;20081;-72
2023/05/05 09:44:34;;;;;;;6.20;2.85;;;21.10;82.80;;;;;;4944480;28;20058;-70
2023/05/05 09:47:04;;;;;;;6.38;2.95;;;21.20;82.40;;;;;;4976044;28;20051;-71
2023/05/05 09:49:57;;;;;;;5.93;2.97;;;21.00;80.80;;;;;;4961677;28;20077;-76
2023/05/05 09:52:31;;;;;;;5.05;3.13;;;21.00;81.50;;;;;;4997457;28;20150;-72
2023/05/05 09:55:35;;;;;;;7.47;3.35;;;21.30;80.80;;;;;;4958966;28;20146;-73
2023/05/05 09:58:23;;;;;;;4.70;2.78;;;21.60;81.00;;;;;;4965320;28;20462;-73
2023/05/05 10:00:59;;;;;;;5.43;3.38;;;21.50;78.50;;;;;;5014374;23;20064;-76
2023/05/05 10:03:26;;;;;;;6.45;2.85;;;21.20;80.60;;;;;;5007213;28;20480;-77
2023/05/05 10:05:59;;;;;;;6.97;2.85;;;21.40;78.60;;;;;;4977932;28;20045;-72
2023/05/05 10:08:32;;;;;;;4.60;2.92;;;21.20;78.00;;;;;;4978770;28;20046;-74
2023/05/05 10:11:05;;;;;;;6.45;3.33;;;20.90;78.40;;;;;;4978949;28;20065;-73
2023/05/05 10:13:39;;;;;;;5.18;3.25;;;20.70;79.80;;;;;;4962860;28;20073;-70
2023/05/05 10:16:08;;;;;;;4.60;2.90;;;19.80;80.50;;;;;;4990053;23;20046;-75
2023/05/05 10:18:39;;;;;;;4.70;3.10;;;19.80;81.50;;;;;;5009848;28;20095;-70
2023/05/05 10:21:08;;;;;;;6.00;3.83;;;19.70;81.40;;;;;;4970548;28;20084;-75
2023/05/05 10:23:40;;;;;;;4.35;2.90;;;19.50;82.40;;;;;;4987803;28;20073;-73
2023/05/05 10:26:13;;;;;;;13.40;3.72;;;19.10;84.40;;;;;;4985341;28;20125;-70
2023/05/05 10:28:50;;;;;;;6.93;3.13;;;19.60;83.60;;;;;;5002050;28;20376;-72
2023/05/05 10:31:48;;;;;;;5.75;2.75;;;19.60;83.40;;;;;;4995513;28;20069;-73
2023/05/05 10:34:38;;;;;;;4.65;3.00;;;19.20;83.00;;;;;;4999106;28;20112;-80
2023/05/05 10:37:06;;;;;;;5.80;3.30;;;19.40;84.20;;;;;;4993980;28;20065;-77
2023/05/05 10:39:36;;;;;;;6.65;3.17;;;19.50;84.90;;;;;;5021033;28;20616;-71
2023/05/05 10:42:09;;;;;;;5.65;3.30;;;19.80;83.90;;;;;;5021218;28;20116;-75
2023/05/05 10:44:44;;;;;;;5.03;3.30;;;19.50;82.70;;;;;;5000347;28;20609;-74
2023/05/05 10:47:23;;;;;;;9.40;3.00;;;19.10;84.30;;;;;;4998245;28;20178;-72
2023/05/05 10:50:26;;;;;;;6.13;3.00;;;19.40;83.40;;;;;;5000039;28;20050;-70
2023/05/05 10:53:22;;;;;;;6.82;3.40;;;19.70;83.20;;;;;;4958941;28;20089;-75
2023/05/05 10:55:52;;;;;;;4.97;3.08;;;20.70;82.90;;;;;;4984296;28;20085;-74
2023/05/05 10:58:34;;;;;;;5.43;3.67;;;20.90;79.70;;;;;;4980739;28;20579;-77
2023/05/05 11:01:32;;;;;;;4.70;3.00;;;20.90;81.70;;;;;;4996031;28;20085;-72
2023/05/05 11:04:20;;;;;;;4.78;2.90;;;21.30;80.50;;;;;;4992799;28;20054;-69
2023/05/05 11:07:28;;;;;;;4.93;3.08;;;21.00;78.90;;;;;;4999924;28;20053;-75
2023/05/05 11:10:19;;;;;;;7.45;3.00;;;20.60;81.00;;;;;;4986079;28;20474;-71
2023/05/05 11:12:58;;;;;;;7.97;3.33;;;20.30;80.20;;;;;;4986694;28;20054;-73
2023/05/05 11:15:36;;;;;;;4.43;2.95;;;20.20;80.60;;;;;;4984031;28;20055;-71
2023/05/05 11:18:05;;;;;;;6.13;3.28;;;20.20;81.30;;;;;;4972381;28;20046;-75
2023/05/05 11:20:42;;;;;;;5.45;3.22;;;20.20;81.90;;;;;;4981250;28;20081;-74
2023/05/05 11:23:18;;;;;;;6.95;3.22;;;20.40;78.70;;;;;;4978767;28;20081;-74
2023/05/05 11:25:47;;;;;;;4.65;2.58;;;20.60;80.00;;;;;;4977344;28;20129;-72
2023/05/05 11:28:17;;;;;;;9.38;3.13;;;20.50;80.20;;;;;;4974321;28;20054;-73
2023/05/05 11:31:07;;;;;;;5.78;3.00;;;21.20;80.10;;;;;;4998424;28;20435;-70
2023/05/05 11:33:50;;;;;;;6.40;3.08;;;21.70;78.70;;;;;;4962199;28;20050;-71
2023/05/05 11:36:39;;;;;;;6.35;3.58;;;21.30;77.20;;;;;;4963240;28;20105;-73
2023/05/05 11:39:26;;;;;;;12.52;5.45;;;20.80;80.60;;;;;;4958087;28;20046;-71
2023/05/05 11:42:11;;;;;;;5.88;3.22;;;21.30;84.90;;;;;;4972562;23;20070;-71
2023/05/05 11:44:44;;;;;;;9.02;3.28;;;21.00;80.80;;;;;;4986867;28;20054;-79
2023/05/05 11:47:15;;;;;;;5.50;2.92;;;20.70;80.30;;;;;;5012228;28;20093;-75
2023/05/05 11:49:43;;;;;;;7.80;3.55;;;20.20;80.80;;;;;;4965975;28;20057;-78
2023/05/05 11:52:11;;;;;;;9.13;3.55;;;21.50;81.50;;;;;;4996053;28;20086;-82
2023/05/05 11:54:50;;;;;;;5.57;3.50;;;22.20;79.00;;;;;;4991298;28;20050;-79
2023/05/05 11:57:25;;;;;;;5.40;3.38;;;22.20;77.00;;;;;;4979022;28;20061;-77
2023/05/05 12:00:08;;;;;;;8.60;3.20;;;21.30;78.50;;;;;;4991725;28;20055;-78
2023/05/05 12:02:41;;;;;;;4.22;2.67;;;20.60;78.10;;;;;;4997473;28;20050;-75
2023/05/05 12:05:24;;;;;;;5.95;3.05;;;20.50;77.90;;;;;;4983017;28;20053;-73
2023/05/05 12:08:11;;;;;;;8.05;3.28;;;20.50;79.10;;;;;;5015162;28;20129;-77
2023/05/05 12:10:40;;;;;;;4.85;2.85;;;21.00;80.00;;;;;;4984527;28;20497;-73
2023/05/05 12:13:25;;;;;;;4.80;3.05;;;21.10;78.30;;;;;;4963615;28;20035;-74
2023/05/05 12:16:41;;;;;;;5.88;3.92;;;20.80;80.10;;;;;;4975265;28;20039;-75
2023/05/05 12:19:34;;;;;;;4.93;3.42;;;20.70;80.20;;;;;;4984051;28;20085;-75
2023/05/05 12:22:31;;;;;;;7.80;3.97;;;21.30;77.50;;;;;;4979189;28;20050;-72
2023/05/05 12:25:12;;;;;;;6.50;3.53;;;21.30;79.60;;;;;;4978181;28;20038;-71
2023/05/05 12:27:40;;;;;;;8.55;3.58;;;21.20;79.90;;;;;;4984562;28;20106;-74
2023/05/05 12:30:16;;;;;;;7.35;2.72;;;20.80;79.30;;;;;;4998406;28;20078;-73
2023/05/05 12:32:44;;;;;;;8.88;3.10;;;21.50;76.60;;;;;;4999417;28;20054;-72
2023/05/05 12:35:28;;;;;;;6.35;2.78;;;21.70;75.00;;;;;;4963598;28;20068;-72
2023/05/05 12:38:05;;;;;;;;;;;22.00;73.20;;;;;;4983100;28;20050;-79
2023/05/05 12:40:54;;;;;;;4.93;2.67;;;22.50;72.90;;;;;;5004709;28;19922;-78
2023/05/05 12:43:27;;;;;;;5.97;3.05;;;23.00;71.30;;;;;;5011606;28;20050;-72
2023/05/05 12:46:11;;;;;;;;;;;23.00;71.40;;;;;;5005169;28;20030;-80
2023/05/05 12:49:04;;;;;;;4.82;2.70;;;23.10;70.30;;;;;;5018425;28;19967;-72
2023/05/05 12:51:55;;;;;;;7.00;2.70;;;23.60;70.60;;;;;;5020444;28;20035;-72
2023/05/05 12:54:23;;;;;;;5.30;2.78;;;24.70;68.70;;;;;;4999783;28;20050;-75
2023/05/05 12:56:51;;;;;;;11.65;4.15;;;24.40;67.10;;;;;;4962596;28;20038;-78
2023/05/05 12:59:29;;;;;;;4.78;2.60;;;23.70;67.60;;;;;;5004636;28;20050;-79
2023/05/05 13:02:01;;;;;;;6.72;3.00;;;22.90;69.40;;;;;;4978202;28;20050;-80
2023/05/05 13:04:51;;;;;;;5.35;3.28;;;22.40;71.30;;;;;;5014908;28;20121;-77
2023/05/05 13:07:34;;;;;;;5.00;2.72;;;21.70;72.60;;;;;;5002417;28;20053;-71
2023/05/05 13:10:10;;;;;;;9.82;3.75;;;21.30;73.10;;;;;;5002193;28;20061;-70
2023/05/05 13:12:42;;;;;;;5.03;2.70;;;21.80;74.10;;;;;;4995828;28;20058;-77
2023/05/05 13:15:19;;;;;;;7.22;3.45;;;23.30;71.20;;;;;;4995185;28;20062;-71
2023/05/05 13:17:59;;;;;;;4.70;2.90;;;24.30;71.00;;;;;;4983177;28;20046;-72